createdAt,value
2022-08-03T00:01:41.204Z,41.86
2022-08-03T00:04:10.221Z,43.11
2022-08-03T00:06:38.606Z,45.20
2022-08-03T00:09:08.313Z,45.93
2022-08-03T00:11:36.578Z,45.92
2022-08-03T00:14:04.965Z,44.61
2022-08-03T00:16:32.871Z,42.70
2022-08-03T00:19:01.029Z,43.97
2022-08-03T00:21:29.182Z,43.75
2022-08-03T00:23:57.250Z,47.36
2022-08-03T00:26:26.533Z,48.88
2022-08-03T00:28:54.355Z,48.82
2022-08-03T00:31:37.990Z,47.14
2022-08-03T00:34:09.221Z,49.24
2022-08-03T00:36:37.115Z,48.97
2022-08-03T00:39:05.099Z,47.43
2022-08-03T00:41:34.224Z,45.77
2022-08-03T00:44:02.016Z,45.61
2022-08-03T00:46:29.965Z,46.43
2022-08-03T00:48:57.953Z,47.57
2022-08-03T00:51:26.505Z,48.59
2022-08-03T00:53:54.367Z,46.91
2022-08-03T00:56:22.126Z,46.49
2022-08-03T00:58:52.791Z,44.02
2022-08-03T01:01:20.681Z,43.39
2022-08-03T01:03:48.518Z,42.34
2022-08-03T01:06:19.466Z,42.51
2022-08-03T01:08:53.713Z,44.38
2022-08-03T01:11:30.612Z,42.58
2022-08-03T01:14:18.665Z,42.07
2022-08-03T01:16:56.710Z,41.22
2022-08-03T01:19:46.482Z,41.79
2022-08-03T01:22:36.421Z,41.61
2022-08-03T01:25:07.880Z,41.61
2022-08-03T01:27:52.847Z,42.71
2022-08-03T01:30:23.959Z,41.91
2022-08-03T01:33:02.007Z,42.58
2022-08-03T01:35:38.340Z,43.18
2022-08-03T01:38:12.499Z,42.63
2022-08-03T01:40:42.352Z,42.72
2022-08-03T01:43:13.759Z,43.35
2022-08-03T01:45:45.809Z,44.35
2022-08-03T01:48:16.956Z,44.95
2022-08-03T01:50:46.656Z,44.18
2022-08-03T01:53:16.397Z,43.14
2022-08-03T01:55:45.943Z,42.38
2022-08-03T01:58:16.021Z,41.85
2022-08-03T02:00:47.356Z,41.46
2022-08-03T02:03:17.554Z,42.62
2022-08-03T02:05:46.928Z,42.42
2022-08-03T02:08:16.772Z,42.04
2022-08-03T02:10:46.992Z,43.07
2022-08-03T02:13:18.072Z,42.39
2022-08-03T02:15:48.466Z,42.57
2022-08-03T02:18:17.687Z,41.91
2022-08-03T02:20:45.579Z,43.14
2022-08-03T02:23:13.845Z,43.01
2022-08-03T02:25:45.214Z,42.13
2022-08-03T02:28:17.502Z,41.87
2022-08-03T02:30:53.773Z,41.78
2022-08-03T02:33:27.999Z,41.43
2022-08-03T02:35:58.157Z,41.80
2022-08-03T02:38:32.240Z,41.71
2022-08-03T02:41:01.037Z,41.12
2022-08-03T02:44:00.364Z,41.79
2022-08-03T02:46:25.669Z,43.03
2022-08-03T02:48:55.383Z,42.58
2022-08-03T02:51:24.253Z,42.53
2022-08-03T02:53:54.174Z,42.70
2022-08-03T02:56:23.447Z,42.39
2022-08-03T02:58:51.506Z,42.86
2022-08-03T03:01:23.024Z,42.75
2022-08-03T03:03:53.150Z,42.75
2022-08-03T03:06:22.322Z,43.59
2022-08-03T03:08:56.628Z,43.37
2022-08-03T03:11:27.998Z,43.30
2022-08-03T03:13:58.033Z,43.09
2022-08-03T03:16:29.412Z,43.39
2022-08-03T03:18:58.276Z,42.76
2022-08-03T03:21:27.820Z,42.41
2022-08-03T03:23:55.980Z,43.82
2022-08-03T03:26:23.887Z,43.04
2022-08-03T03:28:52.317Z,42.72
2022-08-03T03:31:20.206Z,42.30
2022-08-03T03:33:49.416Z,42.02
2022-08-03T03:36:18.404Z,44.31
2022-08-03T03:38:46.225Z,44.36
2022-08-03T03:41:14.392Z,45.22
2022-08-03T03:43:42.365Z,44.62
2022-08-03T03:46:13.094Z,46.44
2022-08-03T03:48:40.984Z,47.08
2022-08-03T03:51:11.218Z,47.46
2022-08-03T03:53:39.008Z,46.14
2022-08-03T03:56:06.765Z,46.88
2022-08-03T03:58:34.564Z,45.60
2022-08-03T04:01:02.614Z,45.46
2022-08-03T04:03:30.514Z,45.52
2022-08-03T04:06:16.196Z,44.81
2022-08-03T04:09:04.018Z,44.62
2022-08-03T04:11:39.522Z,44.88
2022-08-03T04:14:12.001Z,45.16
2022-08-03T04:16:44.095Z,44.91
2022-08-03T04:19:19.774Z,44.48
2022-08-03T04:21:53.878Z,44.22
2022-08-03T04:24:31.342Z,45.23
2022-08-03T04:27:01.244Z,46.95
2022-08-03T04:29:30.374Z,48.96
2022-08-03T04:32:01.148Z,48.61
2022-08-03T04:34:31.435Z,48.33
2022-08-03T04:37:01.230Z,48.01
2022-08-03T04:39:32.811Z,48.32
2022-08-03T04:42:08.774Z,47.45
2022-08-03T04:44:39.474Z,48.71
2022-08-03T04:47:07.660Z,47.58
2022-08-03T04:49:38.226Z,46.97
2022-08-03T04:52:08.279Z,46.98
2022-08-03T04:54:42.413Z,46.79
2022-08-03T04:57:10.969Z,49.25
2022-08-03T04:59:58.226Z,49.15
2022-08-03T05:02:29.046Z,47.53
2022-08-03T05:04:56.870Z,48.84
2022-08-03T05:07:25.172Z,47.12
2022-08-03T05:09:57.553Z,46.81
2022-08-03T05:12:32.736Z,46.79
2022-08-03T05:15:01.269Z,46.59
2022-08-03T05:17:29.645Z,46.45
2022-08-03T05:19:57.731Z,45.57
2022-08-03T05:22:25.512Z,46.39
2022-08-03T05:24:54.678Z,47.70
2022-08-03T05:27:22.516Z,47.14
2022-08-03T05:29:51.925Z,47.00
2022-08-03T05:32:20.058Z,48.01
2022-08-03T05:34:47.971Z,46.78
2022-08-03T05:37:15.801Z,46.97
2022-08-03T05:39:43.578Z,47.83
2022-08-03T05:42:12.725Z,47.86
2022-08-03T05:44:40.479Z,47.01
2022-08-03T05:47:08.749Z,46.58
2022-08-03T05:49:36.667Z,45.63
2022-08-03T05:52:11.296Z,46.35
2022-08-03T05:54:56.064Z,47.32
2022-08-03T05:57:27.259Z,47.66
2022-08-03T05:59:57.886Z,49.60
2022-08-03T06:02:26.684Z,49.33
2022-08-03T06:04:54.558Z,47.46
2022-08-03T06:07:22.399Z,48.23
2022-08-03T06:09:56.620Z,48.43
2022-08-03T06:12:41.217Z,48.91
2022-08-03T06:15:12.598Z,48.33
2022-08-03T06:17:47.888Z,50.52
2022-08-03T06:20:18.001Z,48.30
2022-08-03T06:22:50.752Z,47.96
2022-08-03T06:25:21.348Z,49.88
2022-08-03T06:27:50.690Z,49.24
2022-08-03T06:30:21.340Z,48.91
2022-08-03T06:32:51.768Z,47.27
2022-08-03T06:35:21.045Z,46.71
2022-08-03T06:37:51.562Z,46.27
2022-08-03T06:40:24.358Z,45.50
2022-08-03T06:42:54.042Z,44.90
2022-08-03T06:45:22.087Z,43.85
2022-08-03T06:48:01.622Z,46.25
2022-08-03T06:50:29.659Z,44.25
2022-08-03T06:52:57.517Z,45.11
2022-08-03T06:55:25.255Z,44.46
2022-08-03T06:57:54.589Z,45.21
2022-08-03T07:00:28.031Z,43.00
2022-08-03T07:02:58.255Z,43.20
2022-08-03T07:05:26.561Z,43.50
2022-08-03T07:07:57.705Z,45.45
2022-08-03T07:10:25.598Z,43.63
2022-08-03T07:12:56.595Z,42.36
2022-08-03T07:15:54.014Z,43.02
2022-08-03T07:18:12.771Z,41.27
2022-08-03T07:20:40.798Z,41.41
2022-08-03T07:23:09.813Z,40.55
2022-08-03T07:25:39.726Z,39.80
2022-08-03T07:28:09.246Z,38.95
2022-08-03T07:30:37.063Z,39.09
2022-08-03T07:33:05.011Z,41.13
2022-08-03T07:35:32.765Z,40.81
2022-08-03T07:38:00.631Z,42.17
2022-08-03T07:40:31.897Z,40.76
2022-08-03T07:43:00.271Z,38.92
2022-08-03T07:45:30.243Z,36.37
2022-08-03T07:47:58.229Z,36.06
2022-08-03T07:50:26.257Z,35.03
2022-08-03T07:52:56.027Z,34.43
2022-08-03T07:55:27.884Z,36.14
2022-08-03T07:58:07.591Z,37.81
2022-08-03T08:00:40.549Z,34.81
2022-08-03T08:03:08.751Z,36.16
2022-08-03T08:05:36.698Z,33.31
2022-08-03T08:08:04.969Z,33.08
2022-08-03T08:10:33.787Z,33.06
2022-08-03T08:13:01.743Z,34.45
2022-08-03T08:15:29.571Z,34.48
2022-08-03T08:18:00.961Z,35.83
2022-08-03T08:20:31.954Z,34.34
2022-08-03T08:23:02.843Z,32.95
2022-08-03T08:25:32.995Z,32.07
2022-08-03T08:28:29.098Z,33.42
2022-08-03T08:30:51.578Z,32.40
2022-08-03T08:33:22.788Z,33.21
2022-08-03T08:35:53.381Z,30.91
2022-08-03T08:38:21.371Z,30.49
2022-08-03T08:40:50.121Z,31.68
2022-08-03T08:43:18.097Z,29.92
2022-08-03T08:45:48.388Z,28.13
2022-08-03T08:48:19.225Z,26.93
2022-08-03T08:50:49.589Z,28.25
2022-08-03T08:53:21.775Z,28.27
2022-08-03T08:56:00.719Z,29.19
2022-08-03T08:58:31.493Z,27.01
2022-08-03T09:00:59.870Z,26.91
2022-08-03T09:03:29.589Z,26.65
2022-08-03T09:06:02.079Z,26.78
2022-08-03T09:08:30.845Z,24.01
2022-08-03T09:10:58.898Z,23.25
2022-08-03T09:13:26.869Z,25.95
2022-08-03T09:16:13.585Z,24.83
2022-08-03T09:18:42.078Z,25.37
2022-08-03T09:21:33.556Z,25.31
2022-08-03T09:24:05.715Z,23.50
2022-08-03T09:26:36.106Z,23.83
2022-08-03T09:29:11.171Z,24.56
2022-08-03T09:31:44.223Z,24.13
2022-08-03T09:34:13.829Z,24.36
2022-08-03T09:36:45.617Z,22.20
2022-08-03T09:39:15.653Z,21.48
2022-08-03T09:41:45.548Z,23.77
2022-08-03T09:44:24.537Z,24.94
2022-08-03T09:46:56.015Z,23.66
2022-08-03T09:49:24.447Z,21.92
2022-08-03T09:52:31.494Z,22.93
2022-08-03T09:54:43.276Z,21.46
2022-08-03T09:57:22.327Z,20.02
2022-08-03T09:59:50.612Z,19.82
2022-08-03T10:02:22.907Z,20.52
2022-08-03T10:04:52.793Z,20.88
2022-08-03T10:07:23.462Z,19.94
2022-08-03T10:09:56.534Z,19.42
2022-08-03T10:12:25.090Z,21.49
2022-08-03T10:14:53.600Z,19.03
2022-08-03T10:17:22.054Z,20.39
2022-08-03T10:19:50.476Z,19.45
2022-08-03T10:22:23.656Z,19.13
2022-08-03T10:24:56.950Z,20.44
2022-08-03T10:27:26.017Z,20.60
2022-08-03T10:29:56.146Z,18.34
2022-08-03T10:32:29.592Z,19.44
2022-08-03T10:35:19.619Z,21.15
2022-08-03T10:37:57.018Z,21.15
2022-08-03T10:43:21.953Z,19.38
2022-08-03T10:45:50.897Z,19.35
2022-08-03T10:48:19.572Z,19.79
2022-08-03T10:50:49.847Z,17.45
2022-08-03T10:53:35.546Z,21.62
2022-08-03T10:56:35.787Z,18.60
2022-08-03T10:59:09.818Z,18.01
2022-08-03T11:01:59.252Z,17.49
2022-08-03T11:04:29.303Z,18.33
2022-08-03T11:07:22.349Z,16.10
2022-08-03T11:09:52.508Z,18.00
2022-08-03T11:12:30.361Z,16.42
2022-08-03T11:15:04.969Z,15.64
2022-08-03T11:17:33.700Z,16.80
2022-08-03T11:20:13.818Z,19.37
2022-08-03T11:22:50.802Z,17.47
2022-08-03T11:25:53.061Z,17.82
2022-08-03T11:28:27.793Z,16.40
2022-08-03T11:30:55.934Z,15.91
2022-08-03T11:33:33.243Z,14.92
2022-08-03T11:36:02.506Z,13.29
2022-08-03T11:38:30.504Z,13.05
2022-08-03T11:41:02.548Z,13.51
2022-08-03T11:43:46.249Z,11.49
2022-08-03T11:46:28.722Z,13.40
2022-08-03T11:49:09.787Z,13.83
2022-08-03T11:51:40.444Z,15.98
2022-08-03T11:54:09.277Z,17.20
2022-08-03T11:56:49.500Z,14.48
2022-08-03T11:59:21.678Z,12.33
2022-08-03T12:01:51.139Z,12.86
2022-08-03T12:04:19.048Z,14.36
2022-08-03T12:06:59.792Z,15.35
2022-08-03T12:09:27.726Z,13.44
2022-08-03T12:12:00.425Z,12.45
2022-08-03T12:14:49.277Z,16.82
2022-08-03T12:17:18.928Z,17.95
2022-08-03T12:19:47.097Z,15.39
2022-08-03T12:22:16.716Z,19.59
2022-08-03T12:24:47.236Z,21.79
2022-08-03T12:27:25.447Z,19.89
2022-08-03T12:29:58.668Z,18.51
2022-08-03T12:32:28.194Z,17.61
2022-08-03T12:35:00.194Z,16.77
2022-08-03T12:37:28.602Z,16.46
2022-08-03T12:40:02.543Z,14.91
2022-08-03T12:42:35.988Z,17.74
2022-08-03T12:45:22.743Z,16.14
2022-08-03T12:47:52.025Z,15.23
2022-08-03T12:50:25.890Z,15.65
2022-08-03T12:52:53.735Z,15.54
2022-08-03T12:55:23.258Z,13.50
2022-08-03T12:57:52.498Z,15.15
2022-08-03T13:00:28.767Z,16.04
2022-08-03T13:03:39.746Z,15.39
2022-08-03T13:05:50.599Z,16.16
2022-08-03T13:08:20.379Z,15.78
2022-08-03T13:10:48.950Z,15.33
2022-08-03T13:13:20.656Z,14.91
2022-08-03T13:15:48.577Z,16.04
2022-08-03T13:18:17.537Z,14.86
2022-08-03T13:20:45.589Z,15.24
2022-08-03T13:23:22.716Z,14.69
2022-08-03T13:25:55.929Z,15.68
2022-08-03T13:28:25.453Z,15.20
2022-08-03T13:30:54.777Z,15.17
2022-08-03T13:33:22.667Z,16.21
2022-08-03T13:35:50.534Z,15.11
2022-08-03T13:38:18.446Z,16.06
2022-08-03T13:40:49.489Z,15.08
2022-08-03T13:43:18.070Z,14.63
2022-08-03T13:45:52.420Z,16.22
2022-08-03T13:48:37.474Z,15.85
2022-08-03T13:51:21.657Z,16.65
2022-08-03T13:53:51.119Z,15.59
2022-08-03T13:56:19.150Z,17.55
2022-08-03T13:58:46.925Z,15.92
2022-08-03T14:01:29.681Z,15.98
2022-08-03T14:04:05.786Z,17.61
2022-08-03T14:06:49.376Z,16.65
2022-08-03T14:09:17.501Z,16.56
2022-08-03T14:12:07.430Z,16.36
2022-08-03T14:14:33.606Z,16.54
2022-08-03T14:17:02.822Z,16.36
2022-08-03T14:19:30.770Z,16.59
2022-08-03T14:22:06.174Z,17.49
2022-08-03T14:24:34.661Z,17.58
2022-08-03T14:27:08.993Z,17.27
2022-08-03T14:29:37.215Z,17.90
2022-08-03T14:32:11.211Z,17.72
2022-08-03T14:34:40.113Z,15.72
2022-08-03T14:37:07.982Z,15.18
2022-08-03T14:42:23.847Z,17.23
2022-08-03T14:44:51.694Z,15.14
2022-08-03T14:47:21.231Z,16.91
2022-08-03T14:50:31.231Z,17.20
2022-08-03T14:52:37.198Z,16.61
2022-08-03T14:55:05.437Z,15.39
2022-08-03T14:57:33.410Z,15.94
2022-08-03T15:00:01.323Z,16.72
2022-08-03T15:02:30.633Z,17.59
2022-08-03T15:04:58.420Z,16.71
2022-08-03T15:07:26.185Z,18.11
2022-08-03T15:09:54.086Z,16.70
2022-08-03T15:12:21.934Z,16.88
2022-08-03T15:14:49.749Z,16.01
2022-08-03T15:17:17.638Z,16.00
2022-08-03T15:20:03.568Z,16.36
2022-08-03T15:22:35.359Z,16.28
2022-08-03T15:25:03.825Z,17.80
2022-08-03T15:28:03.984Z,16.10
2022-08-03T15:30:35.902Z,15.42
2022-08-03T15:33:04.609Z,15.30
2022-08-03T15:35:34.009Z,15.07
2022-08-03T15:38:04.964Z,15.55
2022-08-03T15:40:36.354Z,14.61
2022-08-03T15:43:04.231Z,16.46
2022-08-03T15:45:36.130Z,15.04
2022-08-03T15:48:05.198Z,15.24
2022-08-03T15:50:34.306Z,16.27
2022-08-03T15:53:02.200Z,16.38
2022-08-03T15:55:31.061Z,15.91
2022-08-03T15:59:04.065Z,14.47
2022-08-03T16:00:46.993Z,15.16
2022-08-03T16:03:15.063Z,16.73
2022-08-03T16:05:44.195Z,15.64
2022-08-03T16:08:14.011Z,15.27
2022-08-03T16:10:42.095Z,17.16
2022-08-03T16:13:09.985Z,16.39
2022-08-03T16:15:38.937Z,16.10
2022-08-03T16:18:07.380Z,15.77
2022-08-03T16:20:35.586Z,15.94
2022-08-03T16:23:11.552Z,15.57
2022-08-03T16:25:40.757Z,15.14
2022-08-03T16:28:13.724Z,15.23
2022-08-03T16:30:43.521Z,15.43
2022-08-03T16:33:17.307Z,15.24
2022-08-03T16:35:46.241Z,16.50
2022-08-03T16:38:18.834Z,17.56
2022-08-03T16:40:51.499Z,16.13
2022-08-03T16:43:20.544Z,16.26
2022-08-03T16:45:49.013Z,15.63
2022-08-03T16:48:17.295Z,14.60
2022-08-03T16:50:45.322Z,16.15
2022-08-03T16:53:16.928Z,17.13
2022-08-03T16:55:52.054Z,15.03
2022-08-03T16:58:34.422Z,14.64
2022-08-03T17:01:21.846Z,14.13
2022-08-03T17:04:02.564Z,13.68
2022-08-03T17:06:34.340Z,13.04
2022-08-03T17:09:08.332Z,12.64
2022-08-03T17:11:38.145Z,13.75
2022-08-03T17:14:09.637Z,13.76
2022-08-03T17:16:38.570Z,15.01
2022-08-03T17:19:07.761Z,14.79
2022-08-03T17:21:39.048Z,13.77
2022-08-03T17:24:12.574Z,13.64
2022-08-03T17:26:44.607Z,14.53
2022-08-03T17:29:15.019Z,13.59
2022-08-03T17:31:48.759Z,15.02
2022-08-03T17:34:18.744Z,14.51
2022-08-03T17:37:03.777Z,15.08
2022-08-03T17:39:58.688Z,14.45
2022-08-03T17:42:30.634Z,14.87
2022-08-03T17:45:01.972Z,13.84
2022-08-03T17:47:42.460Z,14.51
2022-08-03T17:50:25.788Z,15.54
2022-08-03T17:53:07.084Z,16.85
2022-08-03T17:55:58.160Z,16.65
2022-08-03T17:58:41.347Z,17.85
2022-08-03T18:02:02.096Z,19.00
2022-08-03T18:04:29.893Z,19.08
2022-08-03T18:07:11.163Z,18.76
2022-08-03T18:12:51.772Z,18.44
2022-08-03T18:15:25.448Z,17.87
2022-08-03T18:18:02.139Z,18.72
2022-08-03T18:20:41.181Z,17.03
2022-08-03T18:23:24.909Z,23.04
2022-08-03T18:26:01.763Z,20.21
2022-08-03T18:28:32.109Z,23.32
2022-08-03T18:31:04.376Z,24.08
2022-08-03T18:34:19.464Z,20.82
2022-08-03T18:36:31.780Z,25.36
2022-08-03T18:39:01.760Z,26.56
2022-08-03T18:41:32.678Z,23.14
2022-08-03T18:44:06.606Z,25.12
2022-08-03T18:46:48.293Z,22.79
2022-08-03T18:49:29.606Z,24.71
2022-08-03T18:52:03.637Z,24.91
2022-08-03T18:54:46.002Z,26.46
2022-08-03T18:57:40.634Z,24.24
2022-08-03T19:00:15.509Z,26.35
2022-08-03T19:02:50.083Z,25.81
2022-08-03T19:05:21.595Z,27.16
2022-08-03T19:08:00.166Z,23.49
2022-08-03T19:10:35.229Z,24.34
2022-08-03T19:13:11.283Z,26.61
2022-08-03T19:15:51.377Z,27.08
2022-08-03T19:18:22.009Z,27.16
2022-08-03T19:20:51.517Z,26.01
2022-08-03T19:23:25.178Z,23.29
2022-08-03T19:25:53.777Z,23.24
2022-08-03T19:28:30.076Z,22.54
2022-08-03T19:31:02.633Z,23.88
2022-08-03T19:33:55.824Z,23.69
2022-08-03T19:36:27.468Z,22.50
2022-08-03T19:38:57.511Z,23.88
2022-08-03T19:41:31.257Z,23.90
2022-08-03T19:44:11.810Z,23.23
2022-08-03T19:46:50.296Z,23.95
2022-08-03T19:49:20.419Z,23.21
2022-08-03T19:52:02.039Z,23.69
2022-08-03T19:54:45.602Z,23.86
2022-08-03T19:57:24.673Z,23.96
2022-08-03T19:59:53.998Z,23.50
2022-08-03T20:02:26.695Z,24.85
2022-08-03T20:04:55.565Z,24.33
2022-08-03T20:07:23.908Z,25.31
2022-08-03T20:09:56.036Z,25.02
2022-08-03T20:12:27.696Z,26.31
2022-08-03T20:14:57.696Z,27.02
2022-08-03T20:20:19.408Z,31.63
2022-08-03T20:22:52.679Z,30.90
2022-08-03T20:25:25.258Z,30.65
2022-08-03T20:28:13.579Z,29.59
2022-08-03T20:30:47.225Z,29.54
2022-08-03T20:33:18.983Z,29.35
2022-08-03T20:35:48.941Z,30.69
2022-08-03T20:38:17.931Z,30.14
2022-08-03T20:40:46.985Z,29.56
2022-08-03T20:43:14.852Z,30.10
2022-08-03T20:46:00.734Z,29.99
2022-08-03T20:48:33.800Z,30.82
2022-08-03T20:51:01.819Z,31.01
2022-08-03T20:53:57.102Z,30.75
2022-08-03T20:56:18.349Z,31.13
2022-08-03T20:58:50.589Z,30.22
2022-08-03T21:01:27.656Z,29.19
2022-08-03T21:04:07.215Z,29.32
2022-08-03T21:06:42.926Z,28.69
2022-08-03T21:09:19.571Z,28.59
2022-08-03T21:11:49.723Z,28.71
2022-08-03T21:13:05.226Z,19.05
2022-08-03T21:13:10.337Z,29.74
2022-08-03T21:14:24.036Z,28.34
2022-08-03T21:16:52.759Z,29.22
2022-08-03T21:19:23.644Z,28.94
2022-08-03T21:21:52.179Z,30.66
2022-08-03T21:24:24.077Z,31.44
2022-08-03T21:26:55.531Z,30.01
2022-08-03T21:29:24.409Z,30.39
2022-08-03T21:31:52.356Z,31.30
2022-08-03T21:34:22.702Z,31.69
2022-08-03T21:36:50.845Z,32.76
2022-08-03T21:39:18.758Z,34.24
2022-08-03T21:41:46.678Z,34.48
2022-08-03T21:44:17.204Z,34.09
2022-08-03T21:46:54.792Z,33.96
2022-08-03T21:50:06.719Z,33.26
2022-08-03T21:52:15.793Z,32.23
2022-08-03T21:54:45.047Z,33.95
2022-08-03T21:57:19.351Z,33.13
2022-08-03T21:59:53.911Z,34.85
2022-08-03T22:02:24.518Z,36.62
2022-08-03T22:04:56.275Z,36.64
2022-08-03T22:07:26.213Z,35.24
2022-08-03T22:09:55.377Z,33.47
2022-08-03T22:12:24.716Z,32.57
2022-08-03T22:15:00.402Z,32.52
2022-08-03T22:17:54.110Z,32.63
2022-08-03T22:20:19.679Z,31.85
2022-08-03T22:22:53.518Z,31.83
2022-08-03T22:25:29.801Z,32.16
2022-08-03T22:28:00.028Z,31.87
2022-08-03T22:30:28.197Z,31.85
2022-08-03T22:32:57.422Z,31.91
2022-08-03T22:35:28.117Z,31.96
2022-08-03T22:37:58.203Z,31.97
2022-08-03T22:40:28.116Z,33.06
2022-08-03T22:42:56.221Z,32.81
2022-08-03T22:46:06.379Z,32.60
2022-08-03T22:48:12.269Z,32.70
2022-08-03T22:50:44.243Z,32.23
2022-08-03T22:53:17.290Z,32.84
2022-08-03T22:55:45.169Z,32.95
2022-08-03T22:58:15.958Z,33.29
2022-08-03T23:00:48.384Z,33.25
2022-08-03T23:03:25.386Z,33.76
2022-08-03T23:06:19.326Z,33.66
2022-08-03T23:08:48.199Z,34.04
2022-08-03T23:11:19.149Z,35.24
2022-08-03T23:13:53.176Z,36.39
2022-08-03T23:16:28.817Z,36.55
2022-08-03T23:18:59.723Z,35.29
2022-08-03T23:21:53.072Z,35.80
2022-08-03T23:24:26.101Z,35.23
2022-08-03T23:26:58.266Z,36.02
2022-08-03T23:29:29.830Z,36.94
2022-08-03T23:31:58.440Z,36.46
2022-08-03T23:34:44.512Z,36.10
2022-08-03T23:37:15.895Z,36.99
2022-08-03T23:39:46.138Z,36.66
2022-08-03T23:42:16.093Z,37.22
2022-08-03T23:44:45.041Z,38.63
2022-08-03T23:47:13.083Z,38.16
2022-08-03T23:49:40.926Z,38.72
2022-08-03T23:52:16.511Z,39.13
2022-08-03T23:54:54.117Z,39.42
2022-08-03T23:57:30.004Z,39.66
